ADDS METAR Data INFO
IDs: Format: Raw Decoded Include TAF

Data at: 1057 UTC 24 Nov 2017

KGLE 241035Z AUTO 00000KT 10SM CLR 07/00 A2996 RMK AO2 T00671005
KGLE 241015Z AUTO 00000KT 10SM CLR 06/00 A2997 RMK AO2 T00621005
KGLE 240955Z AUTO 00000KT 10SM CLR 07/00 A2997 RMK AO2 T00711004
KGLE 240935Z AUTO 00000KT 10SM CLR 07/00 A2997 RMK AO2 T00741005
KGLE 240915Z AUTO 00000KT 10SM CLR 07/00 A2998 RMK AO2 T00721004
KGLE 240855Z AUTO 00000KT 10SM CLR 07/00 A2998 RMK AO2 T00661002
KGLE 240835Z AUTO 15003KT 10SM CLR 07/00 A2998 RMK AO2 T00651001
KGLE 240815Z AUTO 00000KT 10SM CLR 07/00 A2999 RMK AO2 T00681004
KGLE 240755Z AUTO 00000KT 10SM CLR 07/00 A2999 RMK AO2 T00691003
KGLE 240735Z AUTO 15003KT 10SM CLR 08/00 A2999 RMK AO2 T00751002
KGLE 240715Z AUTO 03004KT 10SM CLR 07/00 A3000 RMK AO2 T00731002
KGLE 240655Z AUTO 17003KT 10SM CLR 08/00 A3001 RMK AO2 T00771001
KGLE 240635Z AUTO 19003KT 10SM CLR 09/00 A3002 RMK AO2 T00851001
KGLE 240615Z AUTO 18003KT 10SM CLR 08/00 A3002 RMK AO2 T00820000
KGLE 240555Z AUTO 17003KT 10SM CLR 09/00 A3003 RMK AO2 T00850000 10130 20084 402111011
KGLE 240535Z AUTO 00000KT 10SM CLR 08/00 A3004 RMK AO2 T00840000
KGLE 240515Z AUTO 00000KT 10SM CLR 09/00 A3004 RMK AO2 T00900000
KGLE 240455Z AUTO 00000KT 10SM CLR 09/00 A3005 RMK AO2 T00861001
KGLE 240435Z AUTO 15003KT 10SM CLR 10/00 A3005 RMK AO2 T01021003
KGLE 240415Z AUTO 00000KT 10SM CLR 10/00 A3005 RMK AO2 T00981003
KGLE 240355Z AUTO 16003KT 10SM CLR 10/00 A3005 RMK AO2 T00981001
KGLE 240335Z AUTO 00000KT 10SM CLR 11/00 A3006 RMK AO2 T01050000
KGLE 240315Z AUTO 00000KT 10SM CLR 10/00 A3006 RMK AO2 T01020003
KGLE 240255Z AUTO 00000KT 10SM CLR 11/00 A3005 RMK AO2 T01050003
KGLE 240235Z AUTO 00000KT 10SM CLR 10/00 A3005 RMK AO2 T01040000
KGLE 240215Z AUTO 15003KT 10SM CLR 11/00 A3005 RMK AO2 T01101002
KGLE 240155Z AUTO 00000KT 10SM CLR 11/00 A3006 RMK AO2 T01121005
KGLE 240135Z AUTO 00000KT 10SM CLR 11/M01 A3006 RMK AO2 T01141006
KGLE 240115Z AUTO 00000KT 10SM CLR 11/00 A3006 RMK AO2 T01131005
KGLE 240055Z AUTO 14004KT 10SM CLR 12/M01 A3006 RMK AO2 T01161008
KGLE 240035Z AUTO 13004KT 10SM CLR 12/M01 A3005 RMK AO2 T01211010
KGLE 240015Z AUTO 14004KT 10SM CLR 13/M01 A3005 RMK AO2 T01271010
KGLE 232355Z AUTO 13005KT 10SM CLR 13/M01 A3005 RMK AO2 T01301009 10211 20130
KGLE 232335Z AUTO 14005KT 10SM CLR 14/M01 A3005 RMK AO2 T01391009
KGLE 232315Z AUTO 14005KT 10SM CLR 15/M01 A3005 RMK AO2 T01531010
KGLE 232255Z AUTO 14006KT 10SM CLR 17/M01 A3005 RMK AO2 T01731012
KGLE 232235Z AUTO 14007KT 10SM CLR 19/M01 A3005 RMK AO2 T01851015
KGLE 232215Z AUTO 15009KT 10SM CLR 19/M01 A3005 RMK AO2 T01931014
KGLE 232155Z AUTO 13008KT 10SM CLR 20/M01 A3005 RMK AO2 T01971013
KGLE 232135Z AUTO 13007KT 10SM CLR 20/M01 A3005 RMK AO2 T02031011
KGLE 232115Z AUTO 14007KT 10SM CLR 21/M02 A3006 RMK AO2 T02101018
KGLE 232055Z AUTO 19004KT 10SM CLR 21/M02 A3006 RMK AO2 T02101022
KGLE 232035Z AUTO 17005KT 10SM CLR 21/M02 A3006 RMK AO2 T02101022
KGLE 232015Z AUTO 16006KT 10SM CLR 21/M02 A3007 RMK AO2 T02101021
KGLE 231955Z AUTO 20004KT 10SM CLR 21/M02 A3007 RMK AO2 T02051023
KGLE 231935Z AUTO 23004KT 10SM CLR 20/M02 A3007 RMK AO2 T02021022
KGLE 231915Z AUTO 20003KT 10SM CLR 20/M03 A3009 RMK AO2 T01961028
KGLE 231855Z AUTO 18006KT 10SM CLR 20/M03 A3010 RMK AO2 T01971026
KGLE 231835Z AUTO 00000KT 10SM CLR 19/M03 A3012 RMK AO2 T01901032
KGLE 231815Z AUTO 20004KT 10SM CLR 19/M03 A3012 RMK AO2 T01871031
KGLE 231755Z AUTO 14004KT 10SM CLR 18/M03 A3013 RMK AO2 T01821029 10182 21007
KGLE 231735Z AUTO 23005KT 10SM CLR 17/M03 A3015 RMK AO2 T01741032
KGLE 231715Z AUTO 17004KT 10SM CLR 17/M03 A3016 RMK AO2 T01701032
KGLE 231655Z AUTO 19006KT 10SM CLR 16/M03 A3017 RMK AO2 T01631033
KGLE 231635Z AUTO 20005KT 10SM CLR 15/M03 A3017 RMK AO2 T01521028
KGLE 231615Z AUTO 19004KT 10SM CLR 13/M03 A3018 RMK AO2 T01321034
KGLE 231555Z AUTO 00000KT 10SM CLR 11/M02 A3019 RMK AO2 T01131020
KGLE 231535Z AUTO 00000KT 10SM CLR 09/M02 A3020 RMK AO2 T00931017
KGLE 231515Z AUTO 00000KT 10SM CLR 07/M01 A3019 RMK AO2 T00701007
KGLE 231455Z AUTO 00000KT 10SM CLR 04/M01 A3019 RMK AO2 T00441014
KGLE 231435Z AUTO 00000KT 10SM CLR 03/M01 A3020 RMK AO2 T00331014
KGLE 231415Z AUTO 00000KT 10SM CLR 02/M02 A3020 RMK AO2 T00181016
KGLE 231355Z AUTO 00000KT 10SM CLR 01/M02 A3020 RMK AO2 T00061025
KGLE 231335Z AUTO 00000KT 10SM CLR 00/M04 A3020 RMK AO2 T00001045
KGLE 231315Z AUTO 00000KT 10SM CLR 01/M05 A3020 RMK AO2 T00051048
KGLE 231255Z AUTO 00000KT 10SM CLR 00/M04 A3019 RMK AO2 T10041043
KGLE 231235Z AUTO 00000KT 10SM CLR 00/M04 A3019 RMK AO2 T10021045
KGLE 231215Z AUTO 00000KT 10SM CLR 00/M04 A3020 RMK AO2 T10041045
KGLE 231155Z AUTO 00000KT 10SM CLR M01/M04 A3019 RMK AO2 T10091041 10000 21011
KGLE 231135Z AUTO 00000KT 10SM CLR 00/M04 A3020 RMK AO2 T10051042
KGLE 231115Z AUTO 00000KT 10SM CLR M01/M04 A3020 RMK AO2 T10061045
KGLE 231055Z AUTO 00000KT 10SM CLR 00/M04 A3021 RMK AO2 T10011045
KGLE 231035Z AUTO 00000KT 10SM CLR 00/M04 A3021 RMK AO2 T10021043
KGLE 231015Z AUTO 00000KT 10SM CLR 00/M04 A3021 RMK AO2 T10021043
KGLE 230955Z AUTO 00000KT 10SM CLR 00/M04 A3022 RMK AO2 T10031042
KGLE 230935Z AUTO 00000KT 10SM CLR 00/M04 A3022 RMK AO2 T00001045
KGLE 230915Z AUTO 00000KT 10SM CLR 00/M04 A3022 RMK AO2 T10031045
KGLE 230855Z AUTO 00000KT 10SM CLR 00/M04 A3023 RMK AO2 T10041045
KGLE 230835Z AUTO 00000KT 10SM CLR 00/M04 A3023 RMK AO2 T00001045
KGLE 230815Z AUTO 00000KT 10SM CLR 00/M04 A3023 RMK AO2 T00001045
KGLE 230755Z AUTO 00000KT 10SM CLR 00/M05 A3023 RMK AO2 T10021047
KGLE 230735Z AUTO 00000KT 10SM CLR 00/M04 A3023 RMK AO2 T10021045
KGLE 230715Z AUTO 00000KT 10SM CLR 00/M05 A3025 RMK AO2 T00001048
KGLE 230655Z AUTO 00000KT 10SM CLR M01/M05 A3026 RMK AO2 T10061048
KGLE 230635Z AUTO 00000KT 10SM CLR 00/M05 A3027 RMK AO2 T00001048
KGLE 230615Z AUTO 00000KT 10SM CLR 00/M04 A3027 RMK AO2 T00001045
KGLE 230555Z AUTO 00000KT 10SM CLR 00/M05 A3027 RMK AO2 T00001046 10076 20000 401131003
KGLE 230535Z AUTO 00000KT 10SM CLR 00/M04 A3028 RMK AO2 T00031045
KGLE 230515Z AUTO 00000KT 10SM CLR 01/M04 A3027 RMK AO2 T00051045
KGLE 230455Z AUTO 00000KT 10SM CLR 02/M05 A3028 RMK AO2 T00151046
KGLE 230435Z AUTO 00000KT 10SM CLR 01/M05 A3027 RMK AO2 T00111050
KGLE 230415Z AUTO 26003KT 10SM CLR 01/M05 A3027 RMK AO2 T00101050
KGLE 230355Z AUTO 00000KT 10SM CLR 01/M05 A3028 RMK AO2 T00131051
KGLE 230335Z AUTO 00000KT 10SM CLR 02/M06 A3028 RMK AO2 T00231056
KGLE 230315Z AUTO 00000KT 10SM CLR 03/M05 A3028 RMK AO2 T00251051
KGLE 230255Z AUTO 00000KT 10SM CLR 02/M05 A3029 RMK AO2 T00241050
KGLE 230235Z AUTO 00000KT 10SM CLR 02/M05 A3030 RMK AO2 T00201053
KGLE 230215Z AUTO 00000KT 10SM CLR 04/M06 A3030 RMK AO2 T00361058
KGLE 230155Z AUTO 00000KT 10SM CLR 05/M08 A3029 RMK AO2 T00541079
KGLE 230135Z AUTO 00000KT 10SM CLR 05/M07 A3030 RMK AO2 T00501072
KGLE 230115Z AUTO 31003KT 10SM CLR 05/M07 A3030 RMK AO2 T00471066
KGLE 230055Z AUTO 27003KT 10SM CLR 04/M05 A3030 RMK AO2 T00431053
KGLE 230035Z AUTO 00000KT 10SM CLR 08/M08 A3030 RMK AO2 T00751082
KGLE 230015Z AUTO 00000KT 10SM CLR 07/M07 A3030 RMK AO2 T00681074
KGLE 222355Z AUTO 00000KT 10SM CLR 08/M07 A3030 RMK AO2 T00761075 10113 20075
KGLE 222335Z AUTO 00000KT 10SM CLR 08/M07 A3030 RMK AO2 T00831075
KGLE 222315Z AUTO 00000KT 10SM CLR 09/M08 A3031 RMK AO2 T00871076